sensor_id;sensor_type;location;lat;lon;timestamp;temperature;humidity
15900;DHT22;8048;50.644;6.184;2023-07-24T00:01:16;17.50;99.90
15900;DHT22;8048;50.644;6.184;2023-07-24T00:03:43;17.50;99.90
15900;DHT22;8048;50.644;6.184;2023-07-24T00:06:09;17.60;99.90
15900;DHT22;8048;50.644;6.184;2023-07-24T00:08:34;17.50;99.90
15900;DHT22;8048;50.644;6.184;2023-07-24T00:11:00;17.40;99.90
15900;DHT22;8048;50.644;6.184;2023-07-24T00:13:28;17.40;99.90
15900;DHT22;8048;50.644;6.184;2023-07-24T00:15:53;17.40;99.90
15900;DHT22;8048;50.644;6.184;2023-07-24T00:18:19;17.40;99.90
15900;DHT22;8048;50.644;6.184;2023-07-24T00:20:44;17.40;99.90
15900;DHT22;8048;50.644;6.184;2023-07-24T00:23:10;17.40;99.90
15900;DHT22;8048;50.644;6.184;2023-07-24T00:25:35;17.40;99.90
15900;DHT22;8048;50.644;6.184;2023-07-24T00:28:01;17.30;99.90
15900;DHT22;8048;50.644;6.184;2023-07-24T00:30:26;17.30;99.90
15900;DHT22;8048;50.644;6.184;2023-07-24T00:32:52;17.30;99.90
15900;DHT22;8048;50.644;6.184;2023-07-24T00:35:17;17.30;99.90
15900;DHT22;8048;50.644;6.184;2023-07-24T00:37:43;17.30;99.90
15900;DHT22;8048;50.644;6.184;2023-07-24T00:40:08;17.20;99.90
15900;DHT22;8048;50.644;6.184;2023-07-24T00:42:34;17.20;99.90
15900;DHT22;8048;50.644;6.184;2023-07-24T00:45:00;17.20;99.90
15900;DHT22;8048;50.644;6.184;2023-07-24T00:47:27;17.20;99.90
15900;DHT22;8048;50.644;6.184;2023-07-24T00:49:53;17.20;99.90
15900;DHT22;8048;50.644;6.184;2023-07-24T00:52:19;17.20;99.90
15900;DHT22;8048;50.644;6.184;2023-07-24T00:54:45;17.20;99.90
15900;DHT22;8048;50.644;6.184;2023-07-24T00:57:12;17.20;99.90
15900;DHT22;8048;50.644;6.184;2023-07-24T00:59:38;17.20;99.90
15900;DHT22;8048;50.644;6.184;2023-07-24T01:02:03;17.20;99.90
15900;DHT22;8048;50.644;6.184;2023-07-24T01:04:29;17.20;99.90
15900;DHT22;8048;50.644;6.184;2023-07-24T01:06:55;17.20;99.90
15900;DHT22;8048;50.644;6.184;2023-07-24T01:09:20;17.20;99.90
15900;DHT22;8048;50.644;6.184;2023-07-24T01:12:15;17.20;99.90
15900;DHT22;8048;50.644;6.184;2023-07-24T01:14:44;17.20;99.90
15900;DHT22;8048;50.644;6.184;2023-07-24T01:17:14;17.20;99.90
15900;DHT22;8048;50.644;6.184;2023-07-24T01:19:55;17.20;99.90
15900;DHT22;8048;50.644;6.184;2023-07-24T01:27:48;17.30;99.90
15900;DHT22;8048;50.644;6.184;2023-07-24T01:30:18;17.30;99.90
15900;DHT22;8048;50.644;6.184;2023-07-24T01:32:44;17.40;99.90
15900;DHT22;8048;50.644;6.184;2023-07-24T01:35:10;17.40;99.90
15900;DHT22;8048;50.644;6.184;2023-07-24T01:37:37;17.40;99.90
15900;DHT22;8048;50.644;6.184;2023-07-24T01:40:06;17.30;99.90
15900;DHT22;8048;50.644;6.184;2023-07-24T01:42:33;17.40;99.90
15900;DHT22;8048;50.644;6.184;2023-07-24T01:44:58;17.40;99.90
15900;DHT22;8048;50.644;6.184;2023-07-24T01:47:24;17.30;99.90
15900;DHT22;8048;50.644;6.184;2023-07-24T01:49:49;17.30;99.90
15900;DHT22;8048;50.644;6.184;2023-07-24T01:52:15;17.30;99.90
15900;DHT22;8048;50.644;6.184;2023-07-24T01:54:41;17.30;99.90
15900;DHT22;8048;50.644;6.184;2023-07-24T01:57:06;17.20;99.90
15900;DHT22;8048;50.644;6.184;2023-07-24T01:59:32;17.20;99.90
15900;DHT22;8048;50.644;6.184;2023-07-24T02:01:57;17.10;99.90
15900;DHT22;8048;50.644;6.184;2023-07-24T02:04:23;17.10;99.90
15900;DHT22;8048;50.644;6.184;2023-07-24T02:06:49;17.10;99.90
15900;DHT22;8048;50.644;6.184;2023-07-24T02:09:15;17.10;99.90
15900;DHT22;8048;50.644;6.184;2023-07-24T02:11:41;17.10;99.90
15900;DHT22;8048;50.644;6.184;2023-07-24T02:14:07;17.10;99.90
15900;DHT22;8048;50.644;6.184;2023-07-24T02:16:32;17.00;99.90
15900;DHT22;8048;50.644;6.184;2023-07-24T02:18:58;16.90;99.90
15900;DHT22;8048;50.644;6.184;2023-07-24T02:21:23;16.90;99.90
15900;DHT22;8048;50.644;6.184;2023-07-24T02:23:49;16.90;99.90
15900;DHT22;8048;50.644;6.184;2023-07-24T02:26:14;16.90;99.90
15900;DHT22;8048;50.644;6.184;2023-07-24T02:28:40;16.90;99.90
15900;DHT22;8048;50.644;6.184;2023-07-24T02:31:05;16.90;99.90
15900;DHT22;8048;50.644;6.184;2023-07-24T02:33:31;16.90;99.90
15900;DHT22;8048;50.644;6.184;2023-07-24T02:35:56;16.80;99.90
15900;DHT22;8048;50.644;6.184;2023-07-24T02:38:22;16.90;99.90
15900;DHT22;8048;50.644;6.184;2023-07-24T02:40:47;16.80;99.90
15900;DHT22;8048;50.644;6.184;2023-07-24T02:43:13;16.80;99.90
15900;DHT22;8048;50.644;6.184;2023-07-24T02:45:38;16.70;99.90
15900;DHT22;8048;50.644;6.184;2023-07-24T02:48:05;16.70;99.90
15900;DHT22;8048;50.644;6.184;2023-07-24T02:50:30;16.60;99.90
15900;DHT22;8048;50.644;6.184;2023-07-24T02:52:56;16.70;99.90
15900;DHT22;8048;50.644;6.184;2023-07-24T02:55:21;16.70;99.90
15900;DHT22;8048;50.644;6.184;2023-07-24T02:57:47;16.60;99.90
15900;DHT22;8048;50.644;6.184;2023-07-24T03:00:13;16.50;99.90
15900;DHT22;8048;50.644;6.184;2023-07-24T03:02:39;16.60;99.90
15900;DHT22;8048;50.644;6.184;2023-07-24T03:05:05;16.50;99.90
15900;DHT22;8048;50.644;6.184;2023-07-24T03:07:31;16.40;99.90
15900;DHT22;8048;50.644;6.184;2023-07-24T03:09:56;16.50;99.90
15900;DHT22;8048;50.644;6.184;2023-07-24T03:12:22;16.40;99.90
15900;DHT22;8048;50.644;6.184;2023-07-24T03:14:47;16.40;99.90
15900;DHT22;8048;50.644;6.184;2023-07-24T03:17:13;16.40;99.90
15900;DHT22;8048;50.644;6.184;2023-07-24T03:19:40;16.40;99.90
15900;DHT22;8048;50.644;6.184;2023-07-24T03:22:05;16.40;99.90
15900;DHT22;8048;50.644;6.184;2023-07-24T03:24:31;16.40;99.90
15900;DHT22;8048;50.644;6.184;2023-07-24T03:26:56;16.40;99.90
15900;DHT22;8048;50.644;6.184;2023-07-24T03:29:22;16.40;99.90
15900;DHT22;8048;50.644;6.184;2023-07-24T03:31:47;16.40;99.90
15900;DHT22;8048;50.644;6.184;2023-07-24T03:34:13;16.60;99.90
15900;DHT22;8048;50.644;6.184;2023-07-24T03:36:38;16.50;99.90
15900;DHT22;8048;50.644;6.184;2023-07-24T03:39:07;16.60;99.90
15900;DHT22;8048;50.644;6.184;2023-07-24T03:41:32;16.50;99.90
15900;DHT22;8048;50.644;6.184;2023-07-24T03:43:58;16.40;99.90
15900;DHT22;8048;50.644;6.184;2023-07-24T03:46:24;16.50;99.90
15900;DHT22;8048;50.644;6.184;2023-07-24T03:48:49;16.40;99.90
15900;DHT22;8048;50.644;6.184;2023-07-24T03:51:16;16.40;99.90
15900;DHT22;8048;50.644;6.184;2023-07-24T03:53:41;16.40;99.90
15900;DHT22;8048;50.644;6.184;2023-07-24T03:56:07;16.40;99.90
15900;DHT22;8048;50.644;6.184;2023-07-24T03:58:32;16.40;99.90
15900;DHT22;8048;50.644;6.184;2023-07-24T04:00:58;16.40;99.90
15900;DHT22;8048;50.644;6.184;2023-07-24T04:03:23;16.30;99.90
15900;DHT22;8048;50.644;6.184;2023-07-24T04:05:49;16.30;99.90
15900;DHT22;8048;50.644;6.184;2023-07-24T04:08:15;16.40;99.90
15900;DHT22;8048;50.644;6.184;2023-07-24T04:10:40;16.40;99.90
15900;DHT22;8048;50.644;6.184;2023-07-24T04:13:05;16.40;99.90
15900;DHT22;8048;50.644;6.184;2023-07-24T04:15:31;16.30;99.90
15900;DHT22;8048;50.644;6.184;2023-07-24T04:17:57;16.30;99.90
15900;DHT22;8048;50.644;6.184;2023-07-24T04:20:22;16.30;99.90
15900;DHT22;8048;50.644;6.184;2023-07-24T04:22:48;16.20;99.90
15900;DHT22;8048;50.644;6.184;2023-07-24T04:25:13;16.20;99.90
15900;DHT22;8048;50.644;6.184;2023-07-24T04:27:40;16.20;99.90
15900;DHT22;8048;50.644;6.184;2023-07-24T04:30:06;16.20;99.90
15900;DHT22;8048;50.644;6.184;2023-07-24T04:32:31;16.20;99.90
15900;DHT22;8048;50.644;6.184;2023-07-24T04:34:57;16.20;99.90
15900;DHT22;8048;50.644;6.184;2023-07-24T04:37:22;16.20;99.90
15900;DHT22;8048;50.644;6.184;2023-07-24T04:39:49;16.20;99.90
15900;DHT22;8048;50.644;6.184;2023-07-24T04:42:14;16.20;99.90
15900;DHT22;8048;50.644;6.184;2023-07-24T04:44:40;16.20;99.90
15900;DHT22;8048;50.644;6.184;2023-07-24T04:47:05;16.30;99.90
15900;DHT22;8048;50.644;6.184;2023-07-24T04:49:31;16.30;99.90
15900;DHT22;8048;50.644;6.184;2023-07-24T04:51:58;16.30;99.90
15900;DHT22;8048;50.644;6.184;2023-07-24T04:54:24;16.30;99.90
15900;DHT22;8048;50.644;6.184;2023-07-24T04:56:49;16.30;99.90
15900;DHT22;8048;50.644;6.184;2023-07-24T04:59:15;16.30;99.90
15900;DHT22;8048;50.644;6.184;2023-07-24T05:01:40;16.40;99.90
15900;DHT22;8048;50.644;6.184;2023-07-24T05:04:06;16.50;99.90
15900;DHT22;8048;50.644;6.184;2023-07-24T05:06:31;16.50;99.90
15900;DHT22;8048;50.644;6.184;2023-07-24T05:08:57;16.50;99.90
15900;DHT22;8048;50.644;6.184;2023-07-24T05:11:22;16.50;99.90
15900;DHT22;8048;50.644;6.184;2023-07-24T05:13:48;16.50;99.90
15900;DHT22;8048;50.644;6.184;2023-07-24T05:16:13;16.60;99.90
15900;DHT22;8048;50.644;6.184;2023-07-24T05:18:39;16.60;99.90
15900;DHT22;8048;50.644;6.184;2023-07-24T05:21:05;16.60;99.90
15900;DHT22;8048;50.644;6.184;2023-07-24T05:23:30;16.70;99.90
15900;DHT22;8048;50.644;6.184;2023-07-24T05:26:00;16.70;99.90
15900;DHT22;8048;50.644;6.184;2023-07-24T05:28:26;16.80;99.90
15900;DHT22;8048;50.644;6.184;2023-07-24T05:30:52;16.80;99.90
15900;DHT22;8048;50.644;6.184;2023-07-24T05:33:42;16.90;99.90
15900;DHT22;8048;50.644;6.184;2023-07-24T05:36:10;17.10;99.90
15900;DHT22;8048;50.644;6.184;2023-07-24T05:38:35;17.10;99.90
15900;DHT22;8048;50.644;6.184;2023-07-24T05:41:02;17.20;99.90
15900;DHT22;8048;50.644;6.184;2023-07-24T05:43:29;17.20;99.90
15900;DHT22;8048;50.644;6.184;2023-07-24T05:45:56;17.20;99.90
15900;DHT22;8048;50.644;6.184;2023-07-24T05:48:23;17.30;99.90
15900;DHT22;8048;50.644;6.184;2023-07-24T05:50:49;17.30;99.90
15900;DHT22;8048;50.644;6.184;2023-07-24T05:53:15;17.30;99.90
15900;DHT22;8048;50.644;6.184;2023-07-24T05:55:41;17.30;99.90
15900;DHT22;8048;50.644;6.184;2023-07-24T05:58:08;17.30;99.90
15900;DHT22;8048;50.644;6.184;2023-07-24T06:00:33;17.30;99.90
15900;DHT22;8048;50.644;6.184;2023-07-24T06:02:59;17.30;99.90
15900;DHT22;8048;50.644;6.184;2023-07-24T06:05:24;17.30;99.90
15900;DHT22;8048;50.644;6.184;2023-07-24T06:07:50;17.30;99.90
15900;DHT22;8048;50.644;6.184;2023-07-24T06:10:15;17.40;99.90
15900;DHT22;8048;50.644;6.184;2023-07-24T06:12:41;17.40;99.90
15900;DHT22;8048;50.644;6.184;2023-07-24T06:15:07;17.40;99.90
15900;DHT22;8048;50.644;6.184;2023-07-24T06:17:32;17.40;99.90
15900;DHT22;8048;50.644;6.184;2023-07-24T06:19:58;17.40;99.90
15900;DHT22;8048;50.644;6.184;2023-07-24T06:22:24;17.40;99.90
15900;DHT22;8048;50.644;6.184;2023-07-24T06:24:49;17.40;99.90
15900;DHT22;8048;50.644;6.184;2023-07-24T06:27:15;17.40;99.90
15900;DHT22;8048;50.644;6.184;2023-07-24T06:29:41;17.40;99.90
15900;DHT22;8048;50.644;6.184;2023-07-24T06:32:07;17.40;99.90
15900;DHT22;8048;50.644;6.184;2023-07-24T06:34:33;17.50;99.90
15900;DHT22;8048;50.644;6.184;2023-07-24T06:36:58;17.50;99.90
15900;DHT22;8048;50.644;6.184;2023-07-24T06:39:24;17.50;99.90
15900;DHT22;8048;50.644;6.184;2023-07-24T06:41:52;17.60;99.90
15900;DHT22;8048;50.644;6.184;2023-07-24T06:44:17;17.50;99.90
15900;DHT22;8048;50.644;6.184;2023-07-24T06:46:43;17.50;99.90
15900;DHT22;8048;50.644;6.184;2023-07-24T06:49:08;17.50;99.90
15900;DHT22;8048;50.644;6.184;2023-07-24T06:51:35;17.50;99.90
15900;DHT22;8048;50.644;6.184;2023-07-24T06:54:00;17.50;99.90
15900;DHT22;8048;50.644;6.184;2023-07-24T06:56:26;17.50;99.90
15900;DHT22;8048;50.644;6.184;2023-07-24T06:58:51;17.60;99.90
15900;DHT22;8048;50.644;6.184;2023-07-24T07:01:17;17.50;99.90
15900;DHT22;8048;50.644;6.184;2023-07-24T07:03:43;17.60;99.90
15900;DHT22;8048;50.644;6.184;2023-07-24T07:06:08;17.60;99.90
15900;DHT22;8048;50.644;6.184;2023-07-24T07:08:36;17.70;99.90
15900;DHT22;8048;50.644;6.184;2023-07-24T07:11:01;17.70;99.90
15900;DHT22;8048;50.644;6.184;2023-07-24T07:13:27;17.70;99.90
15900;DHT22;8048;50.644;6.184;2023-07-24T07:15:53;17.80;99.90
15900;DHT22;8048;50.644;6.184;2023-07-24T07:18:18;17.70;99.90
15900;DHT22;8048;50.644;6.184;2023-07-24T07:20:49;17.70;99.90
15900;DHT22;8048;50.644;6.184;2023-07-24T07:23:15;17.70;99.90
15900;DHT22;8048;50.644;6.184;2023-07-24T07:25:41;17.70;99.90
15900;DHT22;8048;50.644;6.184;2023-07-24T07:28:08;17.80;99.90
15900;DHT22;8048;50.644;6.184;2023-07-24T07:30:34;17.80;99.90
15900;DHT22;8048;50.644;6.184;2023-07-24T07:33:00;17.90;99.90
15900;DHT22;8048;50.644;6.184;2023-07-24T07:35:25;18.00;99.90
15900;DHT22;8048;50.644;6.184;2023-07-24T07:37:51;18.10;99.90
15900;DHT22;8048;50.644;6.184;2023-07-24T07:40:16;18.10;99.90
15900;DHT22;8048;50.644;6.184;2023-07-24T07:42:42;18.20;99.90
15900;DHT22;8048;50.644;6.184;2023-07-24T07:45:08;18.10;99.90
15900;DHT22;8048;50.644;6.184;2023-07-24T07:47:33;18.10;99.90
15900;DHT22;8048;50.644;6.184;2023-07-24T07:49:59;18.10;99.90
15900;DHT22;8048;50.644;6.184;2023-07-24T07:52:24;18.20;99.90
15900;DHT22;8048;50.644;6.184;2023-07-24T07:54:50;18.30;99.90
15900;DHT22;8048;50.644;6.184;2023-07-24T07:57:15;18.40;99.90
15900;DHT22;8048;50.644;6.184;2023-07-24T07:59:41;18.70;99.90
15900;DHT22;8048;50.644;6.184;2023-07-24T08:02:07;18.90;99.90
15900;DHT22;8048;50.644;6.184;2023-07-24T08:04:33;19.10;99.90
15900;DHT22;8048;50.644;6.184;2023-07-24T08:06:59;19.20;99.90
15900;DHT22;8048;50.644;6.184;2023-07-24T08:09:24;19.30;99.90
15900;DHT22;8048;50.644;6.184;2023-07-24T08:11:50;19.30;99.90
15900;DHT22;8048;50.644;6.184;2023-07-24T08:14:17;19.40;99.90
15900;DHT22;8048;50.644;6.184;2023-07-24T08:16:42;19.50;99.90
15900;DHT22;8048;50.644;6.184;2023-07-24T08:19:08;19.70;99.80
15900;DHT22;8048;50.644;6.184;2023-07-24T08:21:33;20.00;99.90
15900;DHT22;8048;50.644;6.184;2023-07-24T08:23:59;20.30;99.70
15900;DHT22;8048;50.644;6.184;2023-07-24T08:26:25;20.40;99.30
15900;DHT22;8048;50.644;6.184;2023-07-24T08:28:52;20.60;98.90
15900;DHT22;8048;50.644;6.184;2023-07-24T08:31:17;20.70;98.80
15900;DHT22;8048;50.644;6.184;2023-07-24T08:33:43;20.90;98.20
15900;DHT22;8048;50.644;6.184;2023-07-24T08:36:09;20.90;98.00
15900;DHT22;8048;50.644;6.184;2023-07-24T08:38:36;20.90;98.50
15900;DHT22;8048;50.644;6.184;2023-07-24T08:43:31;20.90;97.20
15900;DHT22;8048;50.644;6.184;2023-07-24T08:45:58;20.80;97.40
15900;DHT22;8048;50.644;6.184;2023-07-24T08:48:34;20.70;97.80
15900;DHT22;8048;50.644;6.184;2023-07-24T08:51:16;20.70;98.40
15900;DHT22;8048;50.644;6.184;2023-07-24T08:56:11;20.40;98.70
15900;DHT22;8048;50.644;6.184;2023-07-24T08:58:38;20.20;98.60
15900;DHT22;8048;50.644;6.184;2023-07-24T09:01:07;20.20;99.30
15900;DHT22;8048;50.644;6.184;2023-07-24T09:03:34;20.10;99.00
15900;DHT22;8048;50.644;6.184;2023-07-24T09:05:59;20.00;99.30
15900;DHT22;8048;50.644;6.184;2023-07-24T09:08:43;20.00;99.40
15900;DHT22;8048;50.644;6.184;2023-07-24T09:11:10;19.90;99.80
15900;DHT22;8048;50.644;6.184;2023-07-24T09:13:37;19.90;99.80
15900;DHT22;8048;50.644;6.184;2023-07-24T09:16:03;19.90;99.50
15900;DHT22;8048;50.644;6.184;2023-07-24T09:18:42;19.90;99.50
15900;DHT22;8048;50.644;6.184;2023-07-24T09:21:09;19.90;99.90
15900;DHT22;8048;50.644;6.184;2023-07-24T09:23:35;20.00;99.90
15900;DHT22;8048;50.644;6.184;2023-07-24T09:26:11;20.30;99.90
15900;DHT22;8048;50.644;6.184;2023-07-24T09:28:37;20.40;99.50
15900;DHT22;8048;50.644;6.184;2023-07-24T09:31:03;20.40;99.40
15900;DHT22;8048;50.644;6.184;2023-07-24T09:33:38;20.60;99.50
15900;DHT22;8048;50.644;6.184;2023-07-24T09:36:05;20.80;99.40
15900;DHT22;8048;50.644;6.184;2023-07-24T09:38:33;21.00;99.10
15900;DHT22;8048;50.644;6.184;2023-07-24T09:41:01;21.20;99.00
15900;DHT22;8048;50.644;6.184;2023-07-24T09:43:31;21.50;99.00
15900;DHT22;8048;50.644;6.184;2023-07-24T09:46:01;21.90;98.60
15900;DHT22;8048;50.644;6.184;2023-07-24T09:48:29;21.90;97.90
15900;DHT22;8048;50.644;6.184;2023-07-24T09:50:57;22.10;97.50
15900;DHT22;8048;50.644;6.184;2023-07-24T09:53:53;21.90;97.20
15900;DHT22;8048;50.644;6.184;2023-07-24T09:56:21;22.30;97.80
15900;DHT22;8048;50.644;6.184;2023-07-24T09:58:48;22.70;98.70
15900;DHT22;8048;50.644;6.184;2023-07-24T10:01:15;23.20;96.40
15900;DHT22;8048;50.644;6.184;2023-07-24T10:03:49;23.30;95.40
15900;DHT22;8048;50.644;6.184;2023-07-24T10:06:18;23.00;94.90
15900;DHT22;8048;50.644;6.184;2023-07-24T10:08:44;22.60;94.80
15900;DHT22;8048;50.644;6.184;2023-07-24T10:11:12;22.50;95.70
15900;DHT22;8048;50.644;6.184;2023-07-24T10:13:38;22.50;96.00
15900;DHT22;8048;50.644;6.184;2023-07-24T10:16:04;22.50;96.30
15900;DHT22;8048;50.644;6.184;2023-07-24T10:18:34;22.40;95.50
15900;DHT22;8048;50.644;6.184;2023-07-24T10:21:05;22.30;96.60
15900;DHT22;8048;50.644;6.184;2023-07-24T10:23:33;21.90;96.50
15900;DHT22;8048;50.644;6.184;2023-07-24T10:26:03;21.60;97.20
15900;DHT22;8048;50.644;6.184;2023-07-24T10:28:32;21.60;97.50
15900;DHT22;8048;50.644;6.184;2023-07-24T10:30:58;21.70;98.20
15900;DHT22;8048;50.644;6.184;2023-07-24T10:33:43;21.80;97.70
15900;DHT22;8048;50.644;6.184;2023-07-24T10:36:22;22.10;98.00
15900;DHT22;8048;50.644;6.184;2023-07-24T10:38:53;22.30;97.70
15900;DHT22;8048;50.644;6.184;2023-07-24T10:41:19;22.60;97.00
15900;DHT22;8048;50.644;6.184;2023-07-24T10:43:59;22.80;96.70
15900;DHT22;8048;50.644;6.184;2023-07-24T10:46:35;22.40;96.30
15900;DHT22;8048;50.644;6.184;2023-07-24T10:49:01;22.00;97.10
15900;DHT22;8048;50.644;6.184;2023-07-24T10:51:29;22.10;97.70
15900;DHT22;8048;50.644;6.184;2023-07-24T10:53:55;22.20;97.30
15900;DHT22;8048;50.644;6.184;2023-07-24T10:56:20;22.70;97.70
15900;DHT22;8048;50.644;6.184;2023-07-24T10:58:46;23.00;96.60
15900;DHT22;8048;50.644;6.184;2023-07-24T11:01:12;23.40;97.40
15900;DHT22;8048;50.644;6.184;2023-07-24T11:03:41;23.70;95.70
15900;DHT22;8048;50.644;6.184;2023-07-24T11:06:13;24.30;94.90
15900;DHT22;8048;50.644;6.184;2023-07-24T11:08:39;24.30;94.00
15900;DHT22;8048;50.644;6.184;2023-07-24T11:11:05;24.20;93.90
15900;DHT22;8048;50.644;6.184;2023-07-24T11:13:31;24.40;93.80
15900;DHT22;8048;50.644;6.184;2023-07-24T11:16:04;24.30;92.90
15900;DHT22;8048;50.644;6.184;2023-07-24T11:18:30;24.30;94.00
15900;DHT22;8048;50.644;6.184;2023-07-24T11:20:56;24.80;93.70
15900;DHT22;8048;50.644;6.184;2023-07-24T11:23:23;25.10;93.50
15900;DHT22;8048;50.644;6.184;2023-07-24T11:25:53;25.10;93.00
15900;DHT22;8048;50.644;6.184;2023-07-24T11:28:19;25.00;92.70
15900;DHT22;8048;50.644;6.184;2023-07-24T11:30:45;24.70;92.30
15900;DHT22;8048;50.644;6.184;2023-07-24T11:33:12;24.70;92.00
15900;DHT22;8048;50.644;6.184;2023-07-24T11:35:40;24.50;94.00
15900;DHT22;8048;50.644;6.184;2023-07-24T11:38:10;24.30;96.30
15900;DHT22;8048;50.644;6.184;2023-07-24T11:40:40;24.00;96.20
15900;DHT22;8048;50.644;6.184;2023-07-24T11:43:15;23.70;98.20
15900;DHT22;8048;50.644;6.184;2023-07-24T11:45:42;23.90;99.20
15900;DHT22;8048;50.644;6.184;2023-07-24T11:48:12;24.20;97.90
15900;DHT22;8048;50.644;6.184;2023-07-24T11:50:45;24.40;99.50
15900;DHT22;8048;50.644;6.184;2023-07-24T11:53:23;24.70;97.10
15900;DHT22;8048;50.644;6.184;2023-07-24T11:55:50;24.90;97.30
15900;DHT22;8048;50.644;6.184;2023-07-24T11:58:17;25.10;95.60
15900;DHT22;8048;50.644;6.184;2023-07-24T12:00:42;25.50;96.20
15900;DHT22;8048;50.644;6.184;2023-07-24T12:03:08;25.50;94.20
15900;DHT22;8048;50.644;6.184;2023-07-24T12:05:43;25.30;93.30
15900;DHT22;8048;50.644;6.184;2023-07-24T12:08:10;24.80;92.80
15900;DHT22;8048;50.644;6.184;2023-07-24T12:10:37;24.50;93.40
15900;DHT22;8048;50.644;6.184;2023-07-24T12:13:03;24.30;93.90
15900;DHT22;8048;50.644;6.184;2023-07-24T12:15:28;24.40;93.20
15900;DHT22;8048;50.644;6.184;2023-07-24T12:17:54;24.30;93.20
15900;DHT22;8048;50.644;6.184;2023-07-24T12:20:20;24.10;92.40
15900;DHT22;8048;50.644;6.184;2023-07-24T12:22:45;24.00;93.10
15900;DHT22;8048;50.644;6.184;2023-07-24T12:25:12;23.90;92.40
15900;DHT22;8048;50.644;6.184;2023-07-24T12:27:37;24.00;92.70
15900;DHT22;8048;50.644;6.184;2023-07-24T12:30:05;24.50;92.30
15900;DHT22;8048;50.644;6.184;2023-07-24T12:32:31;25.30;92.00
15900;DHT22;8048;50.644;6.184;2023-07-24T12:34:57;25.70;90.30
15900;DHT22;8048;50.644;6.184;2023-07-24T12:37:22;25.70;89.00
15900;DHT22;8048;50.644;6.184;2023-07-24T12:39:48;25.30;87.90
15900;DHT22;8048;50.644;6.184;2023-07-24T12:42:15;25.50;89.50
15900;DHT22;8048;50.644;6.184;2023-07-24T12:44:41;26.00;86.80
15900;DHT22;8048;50.644;6.184;2023-07-24T12:47:07;26.20;83.80
15900;DHT22;8048;50.644;6.184;2023-07-24T12:49:33;26.60;79.20
15900;DHT22;8048;50.644;6.184;2023-07-24T12:51:58;26.80;81.20
15900;DHT22;8048;50.644;6.184;2023-07-24T12:54:24;27.30;77.30
15900;DHT22;8048;50.644;6.184;2023-07-24T12:56:50;27.50;73.30
15900;DHT22;8048;50.644;6.184;2023-07-24T12:59:17;27.20;66.80
15900;DHT22;8048;50.644;6.184;2023-07-24T13:01:42;26.70;67.40
15900;DHT22;8048;50.644;6.184;2023-07-24T13:04:08;26.10;67.80
15900;DHT22;8048;50.644;6.184;2023-07-24T13:06:34;25.60;69.30
15900;DHT22;8048;50.644;6.184;2023-07-24T13:08:59;25.30;77.40
15900;DHT22;8048;50.644;6.184;2023-07-24T13:11:25;24.80;87.50
15900;DHT22;8048;50.644;6.184;2023-07-24T13:13:50;24.10;91.60
15900;DHT22;8048;50.644;6.184;2023-07-24T13:16:16;23.60;93.70
15900;DHT22;8048;50.644;6.184;2023-07-24T13:18:42;23.20;93.90
15900;DHT22;8048;50.644;6.184;2023-07-24T13:21:08;22.90;95.70
15900;DHT22;8048;50.644;6.184;2023-07-24T13:23:34;22.50;95.80
15900;DHT22;8048;50.644;6.184;2023-07-24T13:25:59;22.10;96.70
15900;DHT22;8048;50.644;6.184;2023-07-24T13:28:25;21.70;97.50
15900;DHT22;8048;50.644;6.184;2023-07-24T13:30:50;21.70;98.60
15900;DHT22;8048;50.644;6.184;2023-07-24T13:33:16;21.50;97.80
15900;DHT22;8048;50.644;6.184;2023-07-24T13:35:42;21.40;98.40
15900;DHT22;8048;50.644;6.184;2023-07-24T13:38:07;21.10;98.60
15900;DHT22;8048;50.644;6.184;2023-07-24T13:40:36;20.90;98.90
15900;DHT22;8048;50.644;6.184;2023-07-24T13:43:02;20.80;99.90
15900;DHT22;8048;50.644;6.184;2023-07-24T13:45:29;20.80;99.90
15900;DHT22;8048;50.644;6.184;2023-07-24T13:47:56;20.60;99.90
15900;DHT22;8048;50.644;6.184;2023-07-24T13:50:22;20.40;99.90
15900;DHT22;8048;50.644;6.184;2023-07-24T13:52:47;20.50;99.90
15900;DHT22;8048;50.644;6.184;2023-07-24T13:55:13;20.50;99.90
15900;DHT22;8048;50.644;6.184;2023-07-24T13:57:39;20.40;99.90
15900;DHT22;8048;50.644;6.184;2023-07-24T14:00:05;20.30;99.90
15900;DHT22;8048;50.644;6.184;2023-07-24T14:02:31;20.10;99.90
15900;DHT22;8048;50.644;6.184;2023-07-24T14:04:56;20.10;99.90
15900;DHT22;8048;50.644;6.184;2023-07-24T14:07:22;19.90;99.90
15900;DHT22;8048;50.644;6.184;2023-07-24T14:09:47;20.00;99.90
15900;DHT22;8048;50.644;6.184;2023-07-24T14:12:13;19.90;99.90
15900;DHT22;8048;50.644;6.184;2023-07-24T14:14:39;19.80;99.90
15900;DHT22;8048;50.644;6.184;2023-07-24T14:17:04;19.90;99.90
15900;DHT22;8048;50.644;6.184;2023-07-24T14:19:30;20.20;99.90
15900;DHT22;8048;50.644;6.184;2023-07-24T14:21:56;20.40;99.90
15900;DHT22;8048;50.644;6.184;2023-07-24T14:24:21;20.90;99.90
15900;DHT22;8048;50.644;6.184;2023-07-24T14:26:47;21.40;99.90
15900;DHT22;8048;50.644;6.184;2023-07-24T14:29:13;21.60;99.90
15900;DHT22;8048;50.644;6.184;2023-07-24T14:31:42;21.70;99.90
15900;DHT22;8048;50.644;6.184;2023-07-24T14:34:07;21.70;99.90
15900;DHT22;8048;50.644;6.184;2023-07-24T14:36:36;22.10;99.90
15900;DHT22;8048;50.644;6.184;2023-07-24T14:39:03;22.40;99.90
15900;DHT22;8048;50.644;6.184;2023-07-24T14:41:28;22.50;98.90
15900;DHT22;8048;50.644;6.184;2023-07-24T14:43:54;22.50;97.80
15900;DHT22;8048;50.644;6.184;2023-07-24T14:46:19;22.30;97.80
15900;DHT22;8048;50.644;6.184;2023-07-24T14:48:45;22.20;98.40
15900;DHT22;8048;50.644;6.184;2023-07-24T14:51:10;22.20;98.30
15900;DHT22;8048;50.644;6.184;2023-07-24T14:53:36;22.30;99.50
15900;DHT22;8048;50.644;6.184;2023-07-24T14:56:05;22.40;98.80
15900;DHT22;8048;50.644;6.184;2023-07-24T14:58:30;22.30;98.10
15900;DHT22;8048;50.644;6.184;2023-07-24T15:00:56;22.40;98.10
15900;DHT22;8048;50.644;6.184;2023-07-24T15:03:22;22.50;98.30
15900;DHT22;8048;50.644;6.184;2023-07-24T15:05:47;22.40;97.50
15900;DHT22;8048;50.644;6.184;2023-07-24T15:08:13;22.30;98.30
15900;DHT22;8048;50.644;6.184;2023-07-24T15:10:39;22.20;97.80
15900;DHT22;8048;50.644;6.184;2023-07-24T15:13:09;21.70;97.50
15900;DHT22;8048;50.644;6.184;2023-07-24T15:15:35;21.50;98.30
15900;DHT22;8048;50.644;6.184;2023-07-24T15:18:00;21.40;98.90
15900;DHT22;8048;50.644;6.184;2023-07-24T15:20:26;21.50;99.70
15900;DHT22;8048;50.644;6.184;2023-07-24T15:22:52;21.90;98.80
15900;DHT22;8048;50.644;6.184;2023-07-24T15:25:19;22.10;98.00
15900;DHT22;8048;50.644;6.184;2023-07-24T15:27:44;22.30;98.20
15900;DHT22;8048;50.644;6.184;2023-07-24T15:30:10;22.20;97.70
15900;DHT22;8048;50.644;6.184;2023-07-24T15:32:36;22.20;97.70
15900;DHT22;8048;50.644;6.184;2023-07-24T15:35:01;22.00;97.00
15900;DHT22;8048;50.644;6.184;2023-07-24T15:37:27;21.70;97.30
15900;DHT22;8048;50.644;6.184;2023-07-24T15:39:54;21.60;97.70
15900;DHT22;8048;50.644;6.184;2023-07-24T15:42:20;21.40;97.20
15900;DHT22;8048;50.644;6.184;2023-07-24T15:44:48;21.20;97.80
15900;DHT22;8048;50.644;6.184;2023-07-24T15:47:13;21.10;97.70
15900;DHT22;8048;50.644;6.184;2023-07-24T15:49:39;21.10;97.90
15900;DHT22;8048;50.644;6.184;2023-07-24T15:52:06;21.10;97.70